Time;durP1;ratioP1;P1;durP2;ratioP2;P2;SDS_P1;SDS_P2;PMS_P1;PMS_P2;Temp;Humidity;BMP_temperature;BMP_pressure;BME280_temperature;BME280_humidity;BME280_pressure;Samples;Min_cycle;Max_cycle;Signal;HPM_P1;HPM_P2
2023/04/22 00:01:29;;;;;;;;;;;11.80;69.30;;;;;;5094809;27;94030;-40
2023/04/22 00:03:54;;;;;;;;;;;11.80;69.20;;;;;;5098704;27;93713;-40
2023/04/22 00:06:20;;;;;;;;;;;11.70;69.10;;;;;;5099260;27;92196;-40
2023/04/22 00:08:45;;;;;;;;;;;11.70;69.20;;;;;;5099566;27;93601;-40
2023/04/22 00:11:11;;;;;;;;;;;11.70;69.20;;;;;;5098750;27;94223;-40
2023/04/22 00:13:36;;;;;;;;;;;11.70;69.20;;;;;;5102122;27;92131;-40
2023/04/22 00:16:03;;;;;;;;;;;11.70;69.10;;;;;;5098782;27;94750;-40
2023/04/22 00:18:28;;;;;;;;;;;11.70;69.20;;;;;;5099959;27;91401;-40
2023/04/22 00:20:54;;;;;;;;;;;11.70;69.00;;;;;;5099222;27;93529;-40
2023/04/22 00:23:19;;;;;;;;;;;11.60;69.00;;;;;;5098926;27;94249;-40
2023/04/22 00:25:45;;;;;;;;;;;11.60;69.00;;;;;;5098268;27;93186;-40
2023/04/22 00:28:10;;;;;;;;;;;11.60;68.90;;;;;;5098956;27;95247;-40
2023/04/22 00:30:36;;;;;;;;;;;11.60;69.50;;;;;;5098419;27;93462;-40
2023/04/22 00:33:01;;;;;;;;;;;11.60;69.10;;;;;;5099149;27;92436;-40
2023/04/22 00:35:27;;;;;;;;;;;11.60;69.00;;;;;;5101532;27;93625;-40
2023/04/22 00:37:52;;;;;;;;;;;11.60;69.10;;;;;;5102488;27;92142;-40
2023/04/22 00:40:18;;;;;;;;;;;11.60;69.00;;;;;;5102735;27;93816;-40
2023/04/22 00:42:43;;;;;;;;;;;11.60;69.10;;;;;;5102606;27;93236;-40
2023/04/22 00:45:10;;;;;;;;;;;11.60;69.00;;;;;;5102717;27;92171;-41
2023/04/22 00:47:36;;;;;;;;;;;11.60;69.60;;;;;;5102352;27;93509;-40
2023/04/22 00:50:02;;;;;;;;;;;11.50;68.90;;;;;;5101074;27;95623;-40
2023/04/22 00:52:27;;;;;;;;;;;11.50;68.90;;;;;;5102221;27;92518;-40
2023/04/22 00:54:53;;;;;;;;;;;11.50;68.90;;;;;;5102437;27;93833;-40
2023/04/22 00:57:18;;;;;;;;;;;11.50;68.90;;;;;;5105215;27;94583;-40
2023/04/22 00:59:44;;;;;;;;;;;11.50;68.80;;;;;;5102374;27;93373;-40
2023/04/22 01:02:10;;;;;;;;;;;11.50;68.90;;;;;;5101555;27;94427;-40
2023/04/22 01:04:36;;;;;;;;;;;11.50;68.80;;;;;;5098288;27;92842;-40
2023/04/22 01:07:01;;;;;;;;;;;11.50;68.80;;;;;;5102657;27;93878;-40
2023/04/22 01:09:27;;;;;;;;;;;11.50;69.00;;;;;;5101481;27;94973;-40
2023/04/22 01:11:53;;;;;;;;;;;11.50;68.90;;;;;;5102413;27;92179;-40
2023/04/22 01:14:18;;;;;;;;;;;11.40;68.90;;;;;;5101269;27;93625;-40
2023/04/22 01:16:44;;;;;;;;;;;11.40;68.90;;;;;;5101781;27;93045;-40
2023/04/22 01:19:10;;;;;;;;;;;11.40;68.80;;;;;;5105365;27;92130;-40
2023/04/22 01:21:36;;;;;;;;;;;11.40;68.70;;;;;;5101691;27;93010;-40
2023/04/22 01:24:02;;;;;;;;;;;11.40;68.80;;;;;;5101795;27;92191;-40
2023/04/22 01:26:27;;;;;;;;;;;11.40;68.80;;;;;;5101853;27;94064;-40
2023/04/22 01:28:53;;;;;;;;;;;11.40;68.80;;;;;;5101558;27;94847;-40
2023/04/22 01:31:18;;;;;;;;;;;11.40;68.80;;;;;;5102442;27;91676;-40
2023/04/22 01:33:44;;;;;;;;;;;11.40;68.70;;;;;;5098123;27;92191;-40
2023/04/22 01:36:10;;;;;;;;;;;11.30;68.70;;;;;;5101162;27;94736;-40
2023/04/22 01:38:36;;;;;;;;;;;11.30;68.70;;;;;;5100971;27;93106;-40
2023/04/22 01:41:01;;;;;;;;;;;11.30;68.80;;;;;;5104381;27;94655;-40
2023/04/22 01:43:29;;;;;;;;;;;11.30;68.70;;;;;;5101935;27;92515;-40
2023/04/22 01:45:55;;;;;;;;;;;11.30;68.70;;;;;;5101615;27;93879;-40
2023/04/22 01:48:20;;;;;;;;;;;11.30;68.80;;;;;;5100771;27;92327;-40
2023/04/22 01:50:46;;;;;;;;;;;11.30;68.70;;;;;;5101450;27;92153;-40
2023/04/22 01:53:11;;;;;;;;;;;11.30;68.70;;;;;;5101522;27;93899;-40
2023/04/22 01:55:37;;;;;;;;;;;11.20;68.70;;;;;;5101210;27;93847;-40
2023/04/22 01:58:03;;;;;;;;;;;11.20;68.60;;;;;;5101302;27;92117;-40
2023/04/22 02:00:29;;;;;;;;;;;11.20;68.60;;;;;;5104260;27;92438;-40
2023/04/22 02:02:55;;;;;;;;;;;11.20;68.60;;;;;;5097263;27;93492;-40
2023/04/22 02:05:20;;;;;;;;;;;11.20;68.70;;;;;;5101418;27;95137;-40
2023/04/22 02:07:46;;;;;;;;;;;11.20;69.30;;;;;;5100284;27;94863;-40
2023/04/22 02:10:12;;;;;;;;;;;11.20;68.70;;;;;;5101150;27;92766;-40
2023/04/22 02:12:37;;;;;;;;;;;11.20;68.80;;;;;;5101164;27;93988;-40
2023/04/22 02:15:03;;;;;;;;;;;11.20;68.60;;;;;;5087012;27;93870;-40
2023/04/22 02:17:28;;;;;;;;;;;11.20;68.70;;;;;;5080730;27;92194;-40
2023/04/22 02:19:54;;;;;;;;;;;11.10;68.60;;;;;;5081070;27;94162;-40
2023/04/22 02:22:22;;;;;;;;;;;11.10;68.60;;;;;;5082558;27;94328;-40
2023/04/22 02:24:48;;;;;;;;;;;11.10;68.70;;;;;;5080190;27;94004;-40
2023/04/22 02:27:13;;;;;;;;;;;11.10;68.60;;;;;;5079198;27;95577;-40
2023/04/22 02:29:39;;;;;;;;;;;11.10;68.60;;;;;;5080393;27;92597;-40
2023/04/22 02:32:04;;;;;;;;;;;11.10;68.60;;;;;;5080078;27;92882;-40
2023/04/22 02:34:30;;;;;;;;;;;11.10;68.70;;;;;;5079791;27;95022;-40
2023/04/22 02:36:55;;;;;;;;;;;11.10;68.50;;;;;;5080001;27;92178;-40
2023/04/22 02:39:21;;;;;;;;;;;11.00;68.40;;;;;;5077670;27;93859;-40
2023/04/22 02:41:46;;;;;;;;;;;11.00;68.60;;;;;;5077613;27;94841;-40
2023/04/22 02:44:11;;;;;;;;;;;11.00;68.60;;;;;;5083718;27;91391;-40
2023/04/22 02:46:37;;;;;;;;;;;11.00;68.60;;;;;;5079423;27;94905;-40
2023/04/22 02:49:02;;;;;;;;;;;11.00;68.70;;;;;;5076005;27;92090;-40
2023/04/22 02:51:28;;;;;;;;;;;10.90;68.60;;;;;;5079322;27;93500;-40
2023/04/22 02:53:53;;;;;;;;;;;10.90;68.50;;;;;;5079511;27;94656;-40
2023/04/22 02:56:19;;;;;;;;;;;10.90;68.30;;;;;;5079843;27;92313;-40
2023/04/22 02:58:45;;;;;;;;;;;10.90;68.40;;;;;;5078727;27;94032;-40
2023/04/22 03:01:11;;;;;;;;;;;10.90;68.40;;;;;;5079101;27;94378;-40
2023/04/22 03:03:36;;;;;;;;;;;10.90;68.50;;;;;;5079779;27;93009;-40
2023/04/22 03:06:02;;;;;;;;;;;10.90;68.50;;;;;;5082288;27;94096;-40
2023/04/22 03:08:27;;;;;;;;;;;10.90;68.50;;;;;;5079839;27;91420;-40
2023/04/22 03:10:53;;;;;;;;;;;10.90;68.60;;;;;;5079870;27;92077;-40
2023/04/22 03:13:18;;;;;;;;;;;10.80;68.50;;;;;;5079094;27;94177;-40
2023/04/22 03:15:44;;;;;;;;;;;10.80;68.60;;;;;;5093885;27;93867;-40
2023/04/22 03:18:09;;;;;;;;;;;10.80;68.50;;;;;;5099965;27;94871;-40
2023/04/22 03:20:35;;;;;;;;;;;10.80;68.50;;;;;;5095965;27;94094;-40
2023/04/22 03:23:01;;;;;;;;;;;10.80;68.60;;;;;;5100218;27;92197;-40
2023/04/22 03:25:26;;;;;;;;;;;10.80;68.40;;;;;;5100235;27;92516;-40
2023/04/22 03:27:52;;;;;;;;;;;10.80;68.50;;;;;;5102500;27;94322;-40
2023/04/22 03:30:17;;;;;;;;;;;10.80;68.50;;;;;;5100226;27;92377;-40
2023/04/22 03:32:43;;;;;;;;;;;10.80;68.60;;;;;;5100205;27;92870;-40
2023/04/22 03:35:08;;;;;;;;;;;10.80;68.50;;;;;;5099867;27;92897;-40
2023/04/22 03:37:34;;;;;;;;;;;10.70;68.40;;;;;;5099689;27;93758;-40
2023/04/22 03:39:59;;;;;;;;;;;10.70;68.30;;;;;;5098108;27;95628;-40
2023/04/22 03:42:25;;;;;;;;;;;10.70;68.30;;;;;;5099967;27;92154;-40
2023/04/22 03:44:51;;;;;;;;;;;10.70;68.50;;;;;;5099644;27;93670;-40
2023/04/22 03:47:16;;;;;;;;;;;10.70;68.50;;;;;;5098877;27;94740;-40
2023/04/22 03:49:42;;;;;;;;;;;10.70;68.50;;;;;;5102762;27;92230;-40
2023/04/22 03:52:07;;;;;;;;;;;10.70;68.50;;;;;;5095014;27;94600;-40
2023/04/22 03:54:32;;;;;;;;;;;10.60;68.50;;;;;;5099820;27;92684;-40
2023/04/22 03:56:58;;;;;;;;;;;10.70;68.40;;;;;;5100253;27;94802;-40
2023/04/22 03:59:24;;;;;;;;;;;10.60;68.50;;;;;;5098745;27;94651;-40
2023/04/22 04:01:50;;;;;;;;;;;10.60;68.40;;;;;;5098958;27;92040;-40
2023/04/22 04:04:15;;;;;;;;;;;10.60;68.40;;;;;;5098873;27;93791;-40
2023/04/22 04:06:41;;;;;;;;;;;10.60;68.40;;;;;;5099279;27;93359;-40
2023/04/22 04:09:06;;;;;;;;;;;10.60;68.30;;;;;;5102508;27;92144;-40
2023/04/22 04:11:32;;;;;;;;;;;10.60;68.50;;;;;;5098772;27;94551;-40
2023/04/22 04:13:57;;;;;;;;;;;10.60;68.30;;;;;;5098700;27;92603;-40
2023/04/22 04:16:23;;;;;;;;;;;10.60;68.40;;;;;;5099664;27;92398;-40
2023/04/22 04:18:49;;;;;;;;;;;10.60;68.40;;;;;;5098685;27;94648;-40
2023/04/22 04:21:15;;;;;;;;;;;10.60;68.30;;;;;;5099685;27;91814;-40
2023/04/22 04:23:40;;;;;;;;;;;10.50;68.40;;;;;;5098919;27;93424;-40
2023/04/22 04:26:06;;;;;;;;;;;10.50;68.30;;;;;;5098754;27;93228;-40
2023/04/22 04:28:33;;;;;;;;;;;10.50;68.40;;;;;;5098641;27;93155;-40
2023/04/22 04:30:59;;;;;;;;;;;10.50;68.50;;;;;;5101812;27;94101;-40
2023/04/22 04:33:25;;;;;;;;;;;10.50;68.40;;;;;;5099089;27;92510;-40
2023/04/22 04:35:51;;;;;;;;;;;10.50;68.40;;;;;;5098793;27;94054;-40
2023/04/22 04:38:17;;;;;;;;;;;10.50;68.30;;;;;;5098138;27;94402;-40
2023/04/22 04:40:44;;;;;;;;;;;10.50;68.30;;;;;;5097230;27;93131;-40
2023/04/22 04:43:11;;;;;;;;;;;10.50;68.40;;;;;;5096452;27;93694;-40
2023/04/22 04:45:37;;;;;;;;;;;10.40;68.20;;;;;;5098806;27;93491;-40
2023/04/22 04:48:05;;;;;;;;;;;10.40;68.40;;;;;;5099007;27;92203;-40
2023/04/22 04:50:31;;;;;;;;;;;10.50;68.20;;;;;;5094784;27;94055;-40
2023/04/22 04:52:57;;;;;;;;;;;10.40;68.30;;;;;;5100277;27;95492;-40
2023/04/22 04:55:22;;;;;;;;;;;10.40;68.30;;;;;;5098288;27;94833;-40
2023/04/22 04:57:48;;;;;;;;;;;10.40;68.30;;;;;;5097837;27;94165;-40
2023/04/22 05:00:13;;;;;;;;;;;10.40;68.30;;;;;;5098684;27;92504;-40
2023/04/22 05:02:39;;;;;;;;;;;10.40;68.30;;;;;;5098467;27;94378;-40
2023/04/22 05:05:05;;;;;;;;;;;10.40;68.30;;;;;;5098391;27;92933;-41
2023/04/22 05:07:31;;;;;;;;;;;10.40;68.30;;;;;;5098017;27;92331;-40
2023/04/22 05:09:56;;;;;;;;;;;10.40;68.30;;;;;;5098823;27;93962;-40
2023/04/22 05:12:22;;;;;;;;;;;10.40;68.30;;;;;;5096661;27;96520;-40
2023/04/22 05:14:47;;;;;;;;;;;10.40;68.20;;;;;;5100880;27;92238;-40
2023/04/22 05:17:13;;;;;;;;;;;10.40;68.30;;;;;;5097114;27;95445;-40
2023/04/22 05:19:38;;;;;;;;;;;10.40;68.30;;;;;;5098157;27;92631;-40
2023/04/22 05:22:04;;;;;;;;;;;10.40;68.20;;;;;;5099048;27;93742;-40
2023/04/22 05:24:29;;;;;;;;;;;10.40;68.20;;;;;;5101257;27;94783;-40
2023/04/22 05:26:56;;;;;;;;;;;10.40;68.30;;;;;;5102136;27;92242;-40
2023/04/22 05:29:21;;;;;;;;;;;10.40;68.30;;;;;;5101763;27;92940;-40
2023/04/22 05:31:47;;;;;;;;;;;10.40;68.30;;;;;;5101503;27;94674;-40
2023/04/22 05:34:12;;;;;;;;;;;10.40;68.30;;;;;;5102521;27;91657;-40
2023/04/22 05:36:38;;;;;;;;;;;10.40;68.40;;;;;;5104215;27;93620;-40
2023/04/22 05:39:03;;;;;;;;;;;10.40;68.30;;;;;;5101340;27;92166;-40
2023/04/22 05:41:29;;;;;;;;;;;10.40;68.30;;;;;;5100926;27;93833;-40
2023/04/22 05:43:54;;;;;;;;;;;10.40;68.40;;;;;;5100979;27;94755;-40
2023/04/22 05:46:20;;;;;;;;;;;10.40;68.30;;;;;;5101649;27;92148;-40
2023/04/22 05:48:47;;;;;;;;;;;10.40;68.50;;;;;;5101804;27;92742;-40
2023/04/22 05:51:13;;;;;;;;;;;10.40;68.30;;;;;;5096645;27;94406;-41
2023/04/22 05:53:38;;;;;;;;;;;10.40;68.40;;;;;;5101735;27;92076;-41
2023/04/22 05:56:04;;;;;;;;;;;10.40;68.40;;;;;;5101182;27;93847;-40
2023/04/22 05:58:29;;;;;;;;;;;10.40;68.50;;;;;;5104349;27;93558;-40
2023/04/22 06:00:55;;;;;;;;;;;10.40;68.50;;;;;;5101607;27;92055;-40
2023/04/22 06:03:20;;;;;;;;;;;10.40;68.50;;;;;;5100356;27;94481;-40
2023/04/22 06:05:46;;;;;;;;;;;10.40;68.60;;;;;;5100199;27;93102;-40
2023/04/22 06:08:11;;;;;;;;;;;10.30;68.60;;;;;;5100487;27;94843;-40
2023/04/22 06:10:37;;;;;;;;;;;10.30;68.60;;;;;;5100442;27;94286;-41
2023/04/22 06:13:02;;;;;;;;;;;10.30;68.70;;;;;;5101097;27;92241;-40
2023/04/22 06:15:28;;;;;;;;;;;10.30;68.70;;;;;;5100244;27;93898;-40
2023/04/22 06:17:53;;;;;;;;;;;10.30;68.70;;;;;;5104159;27;93573;-41
2023/04/22 06:20:19;;;;;;;;;;;10.30;68.80;;;;;;5101044;27;93931;-40
2023/04/22 06:22:44;;;;;;;;;;;10.40;68.80;;;;;;5100366;27;93804;-40
2023/04/22 06:25:10;;;;;;;;;;;10.30;68.80;;;;;;5100885;27;92134;-40
2023/04/22 06:27:36;;;;;;;;;;;10.40;68.90;;;;;;5100985;27;92290;-40
2023/04/22 06:30:02;;;;;;;;;;;10.40;68.80;;;;;;5099719;27;95542;-40
2023/04/22 06:32:28;;;;;;;;;;;10.40;68.90;;;;;;5100757;27;92167;-40
2023/04/22 06:34:53;;;;;;;;;;;10.40;68.90;;;;;;5099847;27;92054;-40
2023/04/22 06:37:19;;;;;;;;;;;10.40;69.00;;;;;;5100111;27;94646;-40
2023/04/22 06:39:44;;;;;;;;;;;10.40;69.00;;;;;;5103555;27;92528;-40
2023/04/22 06:42:10;;;;;;;;;;;10.40;69.00;;;;;;5100658;27;94143;-40
2023/04/22 06:44:35;;;;;;;;;;;10.40;69.70;;;;;;5100910;27;92174;-40
2023/04/22 06:47:01;;;;;;;;;;;10.40;69.00;;;;;;5101436;27;93638;-40
2023/04/22 06:49:26;;;;;;;;;;;10.40;69.10;;;;;;5100318;27;94398;-40
2023/04/22 06:51:52;;;;;;;;;;;10.40;69.10;;;;;;5100694;27;92814;-40
2023/04/22 06:54:17;;;;;;;;;;;10.40;69.10;;;;;;5095856;27;94080;-40
2023/04/22 06:56:43;;;;;;;;;;;10.40;69.20;;;;;;5099993;27;95047;-40
2023/04/22 06:59:08;;;;;;;;;;;10.40;69.20;;;;;;5100237;27;92290;-40
2023/04/22 07:01:34;;;;;;;;;;;10.40;69.30;;;;;;5102986;27;93699;-40
2023/04/22 07:03:59;;;;;;;;;;;10.40;69.30;;;;;;5100083;27;92079;-40
2023/04/22 07:06:26;;;;;;;;;;;10.40;69.20;;;;;;5100195;27;93929;-40
2023/04/22 07:08:52;;;;;;;;;;;10.40;69.20;;;;;;5099695;27;94203;-40
2023/04/22 07:11:18;;;;;;;;;;;10.40;69.20;;;;;;5100876;27;91934;-40
2023/04/22 07:13:43;;;;;;;;;;;10.40;69.30;;;;;;5099963;27;92992;-40
2023/04/22 07:16:09;;;;;;;;;;;10.40;69.40;;;;;;5099476;27;93875;-40
2023/04/22 07:18:34;;;;;;;;;;;10.40;69.40;;;;;;5099507;27;93117;-40
2023/04/22 07:21:00;;;;;;;;;;;10.40;69.30;;;;;;5100077;27;94965;-40
2023/04/22 07:23:25;;;;;;;;;;;10.50;69.40;;;;;;5102479;27;94350;-40
2023/04/22 07:25:51;;;;;;;;;;;10.40;69.30;;;;;;5100170;27;94164;-40
2023/04/22 07:28:17;;;;;;;;;;;10.40;69.40;;;;;;5099641;27;93004;-40
2023/04/22 07:30:42;;;;;;;;;;;10.50;69.50;;;;;;5100015;27;92173;-40
2023/04/22 07:33:08;;;;;;;;;;;10.40;69.50;;;;;;5100110;27;94363;-40
2023/04/22 07:35:33;;;;;;;;;;;10.50;69.40;;;;;;5099676;27;93816;-40
2023/04/22 07:37:59;;;;;;;;;;;10.50;69.30;;;;;;5099521;27;92075;-40
2023/04/22 07:40:25;;;;;;;;;;;10.50;69.30;;;;;;5095538;27;93904;-40
2023/04/22 07:42:50;;;;;;;;;;;10.50;69.30;;;;;;5098613;27;95440;-40
2023/04/22 07:45:16;;;;;;;;;;;10.50;69.30;;;;;;5102213;27;92099;-40
2023/04/22 07:47:41;;;;;;;;;;;10.50;69.30;;;;;;5099190;27;94351;-40
2023/04/22 07:50:07;;;;;;;;;;;10.50;69.20;;;;;;5099691;27;92127;-41
2023/04/22 07:52:32;;;;;;;;;;;10.50;69.10;;;;;;5099339;27;93581;-40
2023/04/22 07:54:58;;;;;;;;;;;10.60;69.10;;;;;;5098881;27;94900;-40
2023/04/22 07:57:24;;;;;;;;;;;10.60;69.00;;;;;;5099488;27;92203;-40
2023/04/22 07:59:50;;;;;;;;;;;10.60;69.00;;;;;;5100011;27;93638;-40
2023/04/22 08:02:15;;;;;;;;;;;10.60;69.00;;;;;;5098789;27;94684;-40
2023/04/22 08:04:41;;;;;;;;;;;10.60;69.50;;;;;;5099418;27;92202;-40
2023/04/22 08:07:06;;;;;;;;;;;10.60;69.60;;;;;;5101180;27;94046;-40
2023/04/22 08:09:32;;;;;;;;;;;10.60;70.10;;;;;;5099374;27;92261;-40
2023/04/22 08:11:57;;;;;;;;;;;10.60;69.80;;;;;;5099228;27;93964;-40
2023/04/22 08:14:23;;;;;;;;;;;10.60;69.40;;;;;;5098788;27;94526;-40
2023/04/22 08:16:52;;;;;;;;;;;10.60;69.80;;;;;;5099358;27;92613;-40
2023/04/22 08:19:17;;;;;;;;;;;10.60;69.50;;;;;;5099386;27;93898;-40
2023/04/22 08:21:43;;;;;;;;;;;10.60;69.50;;;;;;5098937;27;93240;-40
2023/04/22 08:24:09;;;;;;;;;;;10.60;70.00;;;;;;5099888;27;91460;-40
2023/04/22 08:26:35;;;;;;;;;;;10.60;70.30;;;;;;5101778;27;92997;-40
2023/04/22 08:29:00;;;;;;;;;;;10.60;70.30;;;;;;5099453;27;92114;-40
2023/04/22 08:31:26;;;;;;;;;;;10.70;70.40;;;;;;5096357;27;93846;-40
2023/04/22 08:33:51;;;;;;;;;;;10.70;70.30;;;;;;5097240;27;93114;-40
2023/04/22 08:36:17;;;;;;;;;;;10.70;70.40;;;;;;5099046;27;92230;-40
2023/04/22 08:38:43;;;;;;;;;;;10.70;70.40;;;;;;5098869;27;94071;-40
2023/04/22 08:41:08;;;;;;;;;;;10.70;70.50;;;;;;5094579;27;94242;-40
2023/04/22 08:43:34;;;;;;;;;;;10.70;70.30;;;;;;5099118;27;92655;-40
2023/04/22 08:46:01;;;;;;;;;;;10.70;70.50;;;;;;5099158;27;93947;-40
2023/04/22 08:48:26;;;;;;;;;;;10.80;70.60;;;;;;5101746;27;93901;-40
2023/04/22 08:50:52;;;;;;;;;;;10.80;70.60;;;;;;5099468;27;92353;-40
2023/04/22 08:53:19;;;;;;;;;;;10.80;70.40;;;;;;5098025;27;94661;-40
2023/04/22 08:55:45;;;;;;;;;;;10.80;71.00;;;;;;5094535;27;93084;-40
2023/04/22 08:58:11;;;;;;;;;;;10.80;70.60;;;;;;5101314;27;95028;-40
2023/04/22 09:00:38;;;;;;;;;;;10.80;70.90;;;;;;5101726;27;94589;-40
2023/04/22 09:03:04;;;;;;;;;;;10.80;70.90;;;;;;5102674;27;92117;-40
2023/04/22 09:05:31;;;;;;;;;;;10.80;70.90;;;;;;5102462;27;93923;-40
2023/04/22 09:07:57;;;;;;;;;;;10.80;70.90;;;;;;5101196;27;94489;-40
2023/04/22 09:10:22;;;;;;;;;;;10.80;70.80;;;;;;5105612;27;92077;-40
2023/04/22 09:12:48;;;;;;;;;;;10.90;70.90;;;;;;5102279;27;93861;-40
2023/04/22 09:15:14;;;;;;;;;;;10.90;70.70;;;;;;5101855;27;92114;-40
2023/04/22 09:17:40;;;;;;;;;;;10.90;70.70;;;;;;5102263;27;93598;-40
2023/04/22 09:20:06;;;;;;;;;;;10.90;70.50;;;;;;5100936;27;95353;-40
2023/04/22 09:22:39;;;;;;;;;;;10.90;70.20;;;;;;5101813;27;92504;-40
2023/04/22 09:25:04;;;;;;;;;;;11.00;70.20;;;;;;5102329;27;92402;-40
2023/04/22 09:27:30;;;;;;;;;;;11.00;69.90;;;;;;5101372;27;93975;-40
2023/04/22 09:29:55;;;;;;;;;;;11.00;70.20;;;;;;5101685;27;92198;-40
2023/04/22 09:32:23;;;;;;;;;;;11.00;70.00;;;;;;5102982;27;95904;-40
2023/04/22 09:34:50;;;;;;;;;;;11.00;69.70;;;;;;5097967;27;92444;-40
2023/04/22 09:37:22;;;;;;;;;;;11.10;69.60;;;;;;5102183;27;93732;-40
2023/04/22 09:39:48;;;;;;;;;;;11.10;69.70;;;;;;5100977;27;94267;-40
2023/04/22 09:42:18;;;;;;;;;;;11.10;70.00;;;;;;5101592;27;92208;-40
2023/04/22 09:44:53;;;;;;;;;;;11.10;69.90;;;;;;5097682;27;93822;-40
2023/04/22 09:47:19;;;;;;;;;;;11.10;69.60;;;;;;5101158;27;93148;-40
2023/04/22 09:49:46;;;;;;;;;;;11.10;69.70;;;;;;5101486;27;92670;-40
2023/04/22 09:52:20;;;;;;;;;;;11.20;70.00;;;;;;5101535;27;93862;-41
2023/04/22 09:54:50;;;;;;;;;;;11.20;70.00;;;;;;5104590;27;92874;-41
2023/04/22 09:57:16;;;;;;;;;;;11.20;70.40;;;;;;5101516;27;93854;-41
2023/04/22 09:59:42;;;;;;;;;;;11.20;69.60;;;;;;5100932;27;94560;-41
2023/04/22 10:02:08;;;;;;;;;;;11.20;69.90;;;;;;5101840;27;91440;-41
2023/04/22 10:04:34;;;;;;;;;;;11.20;69.20;;;;;;5101219;27;93191;-41
2023/04/22 10:07:01;;;;;;;;;;;11.30;69.70;;;;;;5100654;27;94524;-41
2023/04/22 10:09:27;;;;;;;;;;;11.30;69.10;;;;;;5100627;27;93370;-41
2023/04/22 10:11:53;;;;;;;;;;;11.30;70.10;;;;;;5101271;27;94656;-41
2023/04/22 10:14:22;;;;;;;;;;;11.30;69.20;;;;;;5100141;27;94312;-41
2023/04/22 10:16:49;;;;;;;;;;;11.30;69.60;;;;;;5103725;27;92064;-41
2023/04/22 10:19:21;;;;;;;;;;;11.40;68.80;;;;;;5100334;27;94226;-41
2023/04/22 10:21:49;;;;;;;;;;;11.30;69.80;;;;;;5101223;27;92553;-41
2023/04/22 10:24:16;;;;;;;;;;;11.40;69.80;;;;;;5097422;27;92824;-41
2023/04/22 10:26:46;;;;;;;;;;;11.40;69.50;;;;;;5101262;27;92323;-41
2023/04/22 10:29:15;;;;;;;;;;;11.40;68.90;;;;;;5100787;27;92674;-41
2023/04/22 10:31:41;;;;;;;;;;;11.40;69.40;;;;;;5100822;27;93059;-41
2023/04/22 10:34:11;;;;;;;;;;;11.40;70.00;;;;;;5095545;27;95558;-41
2023/04/22 10:36:56;;;;;;;;;;;11.40;68.50;;;;;;5103808;27;92185;-41
2023/04/22 10:39:22;;;;;;;;;;;11.50;69.20;;;;;;5096709;27;94431;-41
2023/04/22 10:42:09;;;;;;;;;;;11.50;69.40;;;;;;5100812;27;92214;-41
2023/04/22 10:44:45;;;;;;;;;;;11.50;69.10;;;;;;5094072;27;93851;-41
2023/04/22 10:47:10;;;;;;;;;;;11.50;69.40;;;;;;5100203;27;93078;-41
2023/04/22 10:49:36;;;;;;;;;;;11.50;68.50;;;;;;5100835;27;91977;-41
2023/04/22 10:52:04;;;;;;;;;;;11.60;68.80;;;;;;5101116;27;94033;-41
2023/04/22 10:54:36;;;;;;;;;;;11.60;68.80;;;;;;5099805;27;94538;-41
2023/04/22 10:57:02;;;;;;;;;;;11.60;68.80;;;;;;5100761;27;92189;-41
2023/04/22 10:59:28;;;;;;;;;;;11.60;68.90;;;;;;5102114;27;93900;-41
2023/04/22 11:01:53;;;;;;;;;;;11.70;68.40;;;;;;5100399;27;92548;-41
2023/04/22 11:04:21;;;;;;;;;;;11.70;68.30;;;;;;5099888;27;93853;-41
2023/04/22 11:07:05;;;;;;;;;;;11.70;68.70;;;;;;5099124;27;94187;-41
2023/04/22 11:09:31;;;;;;;;;;;11.70;68.50;;;;;;5096515;27;92175;-41
2023/04/22 11:12:16;;;;;;;;;;;11.70;68.50;;;;;;5100161;27;93833;-41
2023/04/22 11:14:42;;;;;;;;;;;11.80;68.40;;;;;;5095998;27;93485;-41
2023/04/22 11:17:08;;;;;;;;;;;11.80;67.90;;;;;;5100583;27;91377;-41
2023/04/22 11:19:33;;;;;;;;;;;11.80;67.90;;;;;;5099696;27;93081;-41
2023/04/22 11:21:59;;;;;;;;;;;11.90;68.00;;;;;;5102807;27;94667;-41
2023/04/22 11:24:24;;;;;;;;;;;11.80;68.00;;;;;;5099371;27;93706;-41
2023/04/22 11:26:54;;;;;;;;;;;11.90;67.90;;;;;;5095897;27;93318;-41
2023/04/22 11:29:19;;;;;;;;;;;11.90;68.00;;;;;;5099937;27;92652;-41
2023/04/22 11:31:46;;;;;;;;;;;12.00;67.90;;;;;;5099875;27;93789;-41
2023/04/22 11:34:11;;;;;;;;;;;12.00;68.00;;;;;;5099447;27;93181;-40
2023/04/22 11:36:37;;;;;;;;;;;12.00;67.80;;;;;;5099441;27;92193;-40
2023/04/22 11:39:07;;;;;;;;;;;12.00;68.00;;;;;;5099195;27;93699;-40
2023/04/22 11:41:32;;;;;;;;;;;12.00;68.10;;;;;;5099495;27;93973;-40
2023/04/22 11:43:59;;;;;;;;;;;12.10;67.80;;;;;;5102876;27;92220;-40
2023/04/22 11:46:37;;;;;;;;;;;12.10;67.40;;;;;;5099429;27;94358;-40
2023/04/22 11:49:12;;;;;;;;;;;12.10;67.70;;;;;;5095732;27;93283;-40
2023/04/22 11:51:50;;;;;;;;;;;12.20;67.50;;;;;;5099967;27;93546;-40
2023/04/22 11:54:15;;;;;;;;;;;12.20;66.60;;;;;;5095725;27;94596;-40
2023/04/22 11:56:41;;;;;;;;;;;12.20;67.50;;;;;;5099303;27;92264;-40
2023/04/22 11:59:08;;;;;;;;;;;12.20;67.20;;;;;;5099587;27;92444;-40
2023/04/22 12:01:33;;;;;;;;;;;12.20;67.20;;;;;;5098563;27;94827;-40
2023/04/22 12:03:59;;;;;;;;;;;12.20;66.80;;;;;;5098994;27;92390;-40
2023/04/22 12:06:28;;;;;;;;;;;12.20;66.90;;;;;;5102134;27;92916;-40
2023/04/22 12:08:54;;;;;;;;;;;12.20;66.80;;;;;;5098594;27;92686;-40
2023/04/22 12:11:20;;;;;;;;;;;12.30;67.00;;;;;;5098614;27;92591;-40
2023/04/22 12:13:46;;;;;;;;;;;12.30;67.70;;;;;;5096840;27;95391;-40
2023/04/22 12:16:12;;;;;;;;;;;12.30;66.70;;;;;;5098481;27;92638;-40
2023/04/22 12:18:39;;;;;;;;;;;12.30;66.80;;;;;;5098398;27;93662;-40
2023/04/22 12:21:08;;;;;;;;;;;12.40;66.70;;;;;;5098107;27;94442;-40
2023/04/22 12:23:47;;;;;;;;;;;12.40;66.60;;;;;;5098898;27;92743;-40
2023/04/22 12:26:12;;;;;;;;;;;12.40;66.30;;;;;;5097761;27;93936;-40
2023/04/22 12:28:38;;;;;;;;;;;12.40;66.50;;;;;;5098002;27;92098;-40
2023/04/22 12:31:04;;;;;;;;;;;12.50;66.70;;;;;;5099931;27;92395;-40
2023/04/22 12:33:30;;;;;;;;;;;12.50;66.90;;;;;;5101432;27;94450;-40
2023/04/22 12:35:55;;;;;;;;;;;12.50;66.80;;;;;;5102361;27;92190;-40
2023/04/22 12:38:21;;;;;;;;;;;12.50;66.90;;;;;;5101108;27;93886;-40
2023/04/22 12:40:46;;;;;;;;;;;12.50;66.80;;;;;;5100906;27;94436;-40
2023/04/22 12:43:12;;;;;;;;;;;12.60;66.90;;;;;;5101228;27;92178;-40
2023/04/22 12:45:37;;;;;;;;;;;12.60;66.60;;;;;;5101931;27;94001;-40
2023/04/22 12:48:03;;;;;;;;;;;12.60;66.90;;;;;;5104465;27;94384;-40
2023/04/22 12:50:29;;;;;;;;;;;12.60;65.90;;;;;;5101669;27;94213;-40
2023/04/22 12:52:54;;;;;;;;;;;12.60;66.80;;;;;;5100892;27;94442;-40
2023/04/22 12:55:20;;;;;;;;;;;12.70;67.10;;;;;;5102013;27;91820;-41
2023/04/22 12:57:46;;;;;;;;;;;12.70;67.30;;;;;;5101538;27;92969;-40
2023/04/22 13:00:13;;;;;;;;;;;12.70;66.90;;;;;;5100887;27;94465;-40
2023/04/22 13:02:45;;;;;;;;;;;12.80;67.20;;;;;;5100858;27;92973;-40
2023/04/22 13:05:11;;;;;;;;;;;12.80;66.80;;;;;;5101663;27;94285;-40
2023/04/22 13:07:38;;;;;;;;;;;12.80;66.50;;;;;;5101035;27;94307;-40
2023/04/22 13:10:04;;;;;;;;;;;12.80;66.60;;;;;;5104685;27;92576;-40
2023/04/22 13:12:29;;;;;;;;;;;12.80;66.70;;;;;;5100252;27;94376;-40
2023/04/22 13:14:55;;;;;;;;;;;12.90;66.80;;;;;;5100897;27;92207;-40
2023/04/22 13:17:20;;;;;;;;;;;12.90;66.60;;;;;;5101479;27;93471;-40
2023/04/22 13:19:46;;;;;;;;;;;12.90;66.70;;;;;;5101288;27;94397;-40
2023/04/22 13:22:12;;;;;;;;;;;12.90;66.70;;;;;;5101260;27;92125;-40
2023/04/22 13:24:37;;;;;;;;;;;13.00;66.20;;;;;;5100301;27;95708;-40
2023/04/22 13:27:03;;;;;;;;;;;13.00;66.30;;;;;;5099848;27;95287;-40
2023/04/22 13:29:28;;;;;;;;;;;13.00;66.30;;;;;;5100737;27;92698;-40
2023/04/22 13:31:54;;;;;;;;;;;13.00;66.30;;;;;;5103392;27;94047;-41
2023/04/22 13:34:19;;;;;;;;;;;13.10;66.40;;;;;;5101339;27;92847;-40
2023/04/22 13:36:45;;;;;;;;;;;13.10;65.90;;;;;;5097468;27;94137;-40
2023/04/22 13:39:10;;;;;;;;;;;13.10;66.00;;;;;;5100169;27;94671;-40
2023/04/22 13:41:36;;;;;;;;;;;13.10;65.90;;;;;;5100503;27;92110;-40
2023/04/22 13:44:03;;;;;;;;;;;13.20;65.90;;;;;;5100404;27;93979;-40
2023/04/22 13:46:28;;;;;;;;;;;13.20;65.70;;;;;;5100035;27;94309;-40
2023/04/22 13:48:55;;;;;;;;;;;13.20;65.50;;;;;;5100800;27;92370;-40
2023/04/22 13:51:21;;;;;;;;;;;13.30;65.60;;;;;;5095784;27;94316;-40
2023/04/22 13:53:46;;;;;;;;;;;13.30;65.50;;;;;;5103218;27;94618;-40
2023/04/22 13:56:12;;;;;;;;;;;13.30;65.60;;;;;;5100233;27;94330;-40
2023/04/22 13:58:38;;;;;;;;;;;13.40;65.60;;;;;;5099769;27;94736;-41
2023/04/22 14:01:05;;;;;;;;;;;13.30;65.10;;;;;;5100717;27;92122;-41
2023/04/22 14:03:31;;;;;;;;;;;13.40;65.20;;;;;;5100694;27;93998;-40
2023/04/22 14:05:56;;;;;;;;;;;13.40;65.30;;;;;;5099938;27;94493;-40
2023/04/22 14:08:22;;;;;;;;;;;13.40;65.20;;;;;;5100797;27;91516;-41
2023/04/22 14:10:47;;;;;;;;;;;13.40;65.00;;;;;;5100153;27;92784;-41